Time;durP1;ratioP1;P1;durP2;ratioP2;P2;SDS_P1;SDS_P2;PMS_P1;PMS_P2;Temp;Humidity;BMP_temperature;BMP_pressure;BME280_temperature;BME280_humidity;BME280_pressure;Samples;Min_cycle;Max_cycle;Signal;HPM_P1;HPM_P2
2023/09/13 00:02:19;;;;;;;1999.90;999.90;;;17.70;99.90;;;;;;5038867;28;20044;-67
2023/09/13 00:04:44;;;;;;;1999.90;999.90;;;17.70;99.90;;;;;;5054685;28;20458;-67
2023/09/13 00:07:11;;;;;;;1999.90;999.90;;;17.60;99.90;;;;;;5028151;28;20037;-67
2023/09/13 00:09:40;;;;;;;1999.90;999.90;;;17.60;99.90;;;;;;5050016;28;20052;-67
2023/09/13 00:12:07;;;;;;;1999.90;999.90;;;17.60;99.90;;;;;;5049452;28;20041;-67
2023/09/13 00:14:33;;;;;;;1999.90;999.90;;;17.60;99.90;;;;;;5050324;28;20044;-67
2023/09/13 00:16:59;;;;;;;1999.90;999.90;;;17.60;99.90;;;;;;5042921;28;20068;-67
2023/09/13 00:19:27;;;;;;;1999.90;999.90;;;17.60;99.90;;;;;;5052901;28;20057;-67
2023/09/13 00:21:52;;;;;;;1999.90;999.90;;;17.60;99.90;;;;;;5047923;28;20041;-67
2023/09/13 00:24:18;;;;;;;1999.90;999.90;;;17.60;99.90;;;;;;5031995;28;20127;-67
2023/09/13 00:26:43;;;;;;;1999.90;999.90;;;17.60;99.90;;;;;;5051182;28;20080;-67
2023/09/13 00:29:09;;;;;;;1999.90;999.90;;;17.50;99.90;;;;;;5049589;28;20034;-67
2023/09/13 00:31:35;;;;;;;1999.90;999.90;;;17.60;99.90;;;;;;5052495;28;20029;-67
2023/09/13 00:34:01;;;;;;;1999.90;999.90;;;17.50;99.90;;;;;;5048636;28;20543;-67
2023/09/13 00:36:27;;;;;;;1999.90;999.90;;;17.50;99.90;;;;;;5045311;28;20044;-67
2023/09/13 00:38:52;;;;;;;1999.90;999.90;;;17.50;99.90;;;;;;5047711;28;20502;-67
2023/09/13 00:41:18;;;;;;;1999.90;999.90;;;17.50;99.90;;;;;;5049571;28;20132;-67
2023/09/13 00:43:44;;;;;;;1999.90;999.90;;;17.40;99.90;;;;;;5048765;28;20604;-67
2023/09/13 00:46:10;;;;;;;1999.90;999.90;;;17.40;99.90;;;;;;5054072;28;20048;-66
2023/09/13 00:48:36;;;;;;;1999.90;999.90;;;17.40;99.90;;;;;;5058843;28;20163;-67
2023/09/13 00:51:03;;;;;;;1999.90;999.90;;;17.30;99.90;;;;;;5063332;28;20128;-67
2023/09/13 00:53:30;;;;;;;1999.90;999.90;;;17.30;99.90;;;;;;5033084;28;20418;-67
2023/09/13 00:55:56;;;;;;;1999.90;999.90;;;17.20;99.90;;;;;;5058333;28;20505;-67
2023/09/13 00:58:23;;;;;;;1999.90;999.90;;;17.20;99.90;;;;;;5043853;28;20115;-67
2023/09/13 01:00:53;;;;;;;1999.90;999.90;;;17.20;99.90;;;;;;5030725;28;20041;-67
2023/09/13 01:03:20;;;;;;;1999.90;999.90;;;17.20;99.90;;;;;;5045965;28;20052;-67
2023/09/13 01:05:48;;;;;;;1999.90;999.90;;;17.10;99.90;;;;;;5030331;28;20413;-67
2023/09/13 01:08:13;;;;;;;1999.90;999.90;;;17.10;99.90;;;;;;5044363;28;20044;-67
2023/09/13 01:10:39;;;;;;;1999.90;999.90;;;17.10;99.90;;;;;;5046077;28;20041;-67
2023/09/13 01:13:05;;;;;;;1999.90;999.90;;;17.10;99.90;;;;;;5048576;28;20522;-67
2023/09/13 01:15:38;;;;;;;1999.90;999.90;;;17.10;99.90;;;;;;5049704;28;20057;-67
2023/09/13 01:18:19;;;;;;;1999.90;999.90;;;17.00;99.90;;;;;;5067321;28;20413;-67
2023/09/13 01:21:18;;;;;;;1999.90;999.90;;;16.90;99.90;;;;;;5031194;28;20049;-67
2023/09/13 01:24:18;;;;;;;1999.90;999.90;;;16.90;99.90;;;;;;5044421;28;20040;-67
2023/09/13 01:27:28;;;;;;;1999.90;999.90;;;16.90;99.90;;;;;;5046301;28;20048;-67
2023/09/13 01:29:56;;;;;;;1999.90;999.90;;;16.80;99.90;;;;;;4988021;28;20490;-67
2023/09/13 01:32:21;;;;;;;1999.90;999.90;;;16.80;99.90;;;;;;5032304;28;20492;-67
2023/09/13 01:34:47;;;;;;;1999.90;999.90;;;16.80;99.90;;;;;;5047821;28;20036;-67
2023/09/13 01:37:12;;;;;;;1999.90;999.90;;;16.80;99.90;;;;;;5048256;28;20399;-67
2023/09/13 01:39:38;;;;;;;1999.90;999.90;;;16.70;99.90;;;;;;5049452;28;20048;-67
2023/09/13 01:42:07;;;;;;;1999.90;999.90;;;16.70;99.90;;;;;;5033626;28;20067;-67
2023/09/13 01:44:35;;;;;;;1999.90;999.90;;;16.70;99.90;;;;;;5046875;28;20556;-67
2023/09/13 01:47:03;;;;;;;1999.90;999.90;;;16.60;99.90;;;;;;5051213;28;20110;-67
2023/09/13 01:49:31;;;;;;;1999.90;999.90;;;16.70;99.90;;;;;;5053157;28;20507;-67
2023/09/13 01:51:57;;;;;;;1999.90;999.90;;;16.60;99.90;;;;;;5046830;28;20036;-67
2023/09/13 01:54:22;;;;;;;1999.90;999.90;;;16.60;99.90;;;;;;5041285;28;20049;-67
2023/09/13 01:56:48;;;;;;;1999.90;999.90;;;16.60;99.90;;;;;;5052330;28;20504;-67
2023/09/13 01:59:14;;;;;;;1999.90;999.90;;;16.60;99.90;;;;;;5060898;28;20550;-67
2023/09/13 02:01:39;;;;;;;1999.90;999.90;;;16.60;99.90;;;;;;5054666;28;20041;-67
2023/09/13 02:04:06;;;;;;;1999.90;999.90;;;16.60;99.90;;;;;;5046617;28;20048;-67
2023/09/13 02:06:31;;;;;;;1999.90;999.90;;;16.60;99.90;;;;;;5056116;28;20084;-67
2023/09/13 02:08:57;;;;;;;1999.90;999.90;;;16.60;99.90;;;;;;5052857;28;20072;-68
2023/09/13 02:11:24;;;;;;;1999.90;999.90;;;16.50;99.90;;;;;;5048006;28;20045;-68
2023/09/13 02:13:50;;;;;;;1999.90;999.90;;;16.50;99.90;;;;;;5047382;28;20041;-67
2023/09/13 02:16:22;;;;;;;1999.90;999.90;;;16.50;99.90;;;;;;5044356;28;20135;-67
2023/09/13 02:18:47;;;;;;;1999.90;999.90;;;16.50;99.90;;;;;;5051354;28;20033;-67
2023/09/13 02:21:13;;;;;;;1999.90;999.90;;;16.50;99.90;;;;;;5036098;28;20044;-67
2023/09/13 02:23:41;;;;;;;1999.90;999.90;;;16.50;99.90;;;;;;5046089;28;20045;-67
2023/09/13 02:26:17;;;;;;;1999.90;999.90;;;16.50;99.90;;;;;;5057182;28;20060;-67
2023/09/13 02:28:42;;;;;;;1999.90;999.90;;;16.50;99.90;;;;;;5051215;28;20476;-67
2023/09/13 02:31:08;;;;;;;1999.90;999.90;;;16.50;99.90;;;;;;5050733;28;20131;-67
2023/09/13 02:33:33;;;;;;;1999.90;999.90;;;16.50;99.90;;;;;;5052958;28;20045;-67
2023/09/13 02:35:59;;;;;;;1999.90;999.90;;;16.50;99.90;;;;;;5027456;28;20036;-67
2023/09/13 02:38:24;;;;;;;1999.90;999.90;;;16.50;99.90;;;;;;5046512;28;20484;-67
2023/09/13 02:40:50;;;;;;;1999.90;999.90;;;16.50;99.90;;;;;;5051279;28;20086;-67
2023/09/13 02:43:15;;;;;;;1999.90;999.90;;;16.50;99.90;;;;;;5045733;28;20047;-67
2023/09/13 02:45:41;;;;;;;1999.90;999.90;;;16.50;99.90;;;;;;5049174;28;20037;-67
2023/09/13 02:48:07;;;;;;;1999.90;999.90;;;16.60;99.90;;;;;;5023259;28;20045;-67
2023/09/13 02:50:32;;;;;;;1999.90;999.90;;;16.60;99.90;;;;;;5052018;28;20132;-67
2023/09/13 02:52:58;;;;;;;1999.90;999.90;;;16.60;99.90;;;;;;5046637;28;20507;-68
2023/09/13 02:55:23;;;;;;;1999.90;999.90;;;16.60;99.90;;;;;;5056668;28;20049;-67
2023/09/13 02:57:49;;;;;;;1999.90;999.90;;;16.60;99.90;;;;;;5054071;28;20053;-67
2023/09/13 03:00:15;;;;;;;1999.90;999.90;;;16.60;99.90;;;;;;5053163;28;20155;-68
2023/09/13 03:02:40;;;;;;;1999.90;999.90;;;16.60;99.90;;;;;;5052912;28;20461;-67
2023/09/13 03:05:06;;;;;;;1999.90;999.90;;;16.60;99.90;;;;;;5057074;28;20053;-67
2023/09/13 03:07:32;;;;;;;1999.90;999.90;;;16.60;99.90;;;;;;5042260;28;20480;-66
2023/09/13 03:09:58;;;;;;;1999.90;999.90;;;16.60;99.90;;;;;;5048877;28;20139;-66
2023/09/13 03:12:24;;;;;;;1999.90;999.90;;;16.70;99.90;;;;;;5049014;28;20059;-67
2023/09/13 03:14:49;;;;;;;1999.90;999.90;;;16.60;99.90;;;;;;5057336;28;20143;-67
2023/09/13 03:17:15;;;;;;;1999.90;999.90;;;16.60;99.90;;;;;;5047950;28;20041;-67
2023/09/13 03:19:41;;;;;;;1999.90;999.90;;;16.60;99.90;;;;;;5036614;28;20045;-67
2023/09/13 03:22:06;;;;;;;1999.90;999.90;;;16.70;99.90;;;;;;5039573;28;20037;-67
2023/09/13 03:24:32;;;;;;;1999.90;999.90;;;16.70;99.90;;;;;;5050306;28;20484;-67
2023/09/13 03:26:58;;;;;;;1999.90;999.90;;;16.70;99.90;;;;;;5057013;28;20143;-67
2023/09/13 03:29:23;;;;;;;1999.90;999.90;;;16.70;99.90;;;;;;5058386;28;20668;-67
2023/09/13 03:31:49;;;;;;;1999.90;999.90;;;16.70;99.90;;;;;;5050203;28;20587;-67
2023/09/13 03:34:14;;;;;;;1999.90;999.90;;;16.70;99.90;;;;;;5050397;28;20056;-66
2023/09/13 03:36:40;;;;;;;1999.90;999.90;;;16.70;99.90;;;;;;5048322;28;20526;-67
2023/09/13 03:39:06;;;;;;;1999.90;999.90;;;16.70;99.90;;;;;;5032842;28;20477;-66
2023/09/13 03:41:32;;;;;;;1999.90;999.90;;;16.70;99.90;;;;;;5049397;28;20407;-66
2023/09/13 03:43:58;;;;;;;1999.90;999.90;;;16.60;99.90;;;;;;5050126;28;20485;-67
2023/09/13 03:46:23;;;;;;;1999.90;999.90;;;16.60;99.90;;;;;;5051489;28;20052;-66
2023/09/13 03:48:49;;;;;;;1999.90;999.90;;;16.60;99.90;;;;;;5032979;28;20095;-65
2023/09/13 03:51:15;;;;;;;1999.90;999.90;;;16.60;99.90;;;;;;5048746;28;20400;-66
2023/09/13 03:53:40;;;;;;;1999.90;999.90;;;16.50;99.90;;;;;;5051849;28;20511;-66
2023/09/13 03:56:06;;;;;;;1999.90;999.90;;;16.40;99.90;;;;;;5055027;28;20041;-66
2023/09/13 03:58:35;;;;;;;1999.90;999.90;;;16.20;99.90;;;;;;5052915;28;20055;-67
2023/09/13 04:01:02;;;;;;;1999.90;999.90;;;16.20;99.90;;;;;;5051701;28;20611;-66
2023/09/13 04:03:28;;;;;;;1999.90;999.90;;;16.10;99.90;;;;;;5049407;28;20078;-66
2023/09/13 04:05:54;;;;;;;1999.90;999.90;;;15.90;99.90;;;;;;5051903;28;20573;-67
2023/09/13 04:08:20;;;;;;;1999.90;999.90;;;15.80;99.90;;;;;;5051669;28;20041;-66
2023/09/13 04:10:45;;;;;;;1999.90;999.90;;;15.70;99.90;;;;;;5048430;28;20076;-66
2023/09/13 04:13:11;;;;;;;1999.90;999.90;;;15.70;99.90;;;;;;5054164;28;20485;-66
2023/09/13 04:15:37;;;;;;;1999.90;999.90;;;15.60;99.90;;;;;;5048096;28;20048;-67
2023/09/13 04:18:03;;;;;;;1999.90;999.90;;;15.50;99.90;;;;;;5044995;28;20049;-67
2023/09/13 04:20:29;;;;;;;1999.90;999.90;;;15.50;99.90;;;;;;5048394;28;20041;-67
2023/09/13 04:22:55;;;;;;;1999.90;999.90;;;15.40;99.90;;;;;;5047691;28;20115;-67
2023/09/13 04:25:20;;;;;;;1999.90;999.90;;;15.40;99.90;;;;;;5032552;28;20508;-67
2023/09/13 04:27:47;;;;;;;1999.90;999.90;;;15.30;99.90;;;;;;5064366;28;20051;-67
2023/09/13 04:30:14;;;;;;;1999.90;999.90;;;15.30;99.90;;;;;;5040495;28;20045;-67
2023/09/13 04:32:40;;;;;;;1999.90;999.90;;;15.30;99.90;;;;;;5039029;28;20045;-67
2023/09/13 04:35:07;;;;;;;1999.90;999.90;;;15.30;99.90;;;;;;5044401;28;20060;-67
2023/09/13 04:37:33;;;;;;;1999.90;999.90;;;15.30;99.90;;;;;;5055936;28;20153;-67
2023/09/13 04:40:01;;;;;;;1999.90;999.90;;;15.20;99.90;;;;;;5030997;28;20052;-67
2023/09/13 04:42:26;;;;;;;1999.90;999.90;;;15.30;99.90;;;;;;5051398;28;20033;-67
2023/09/13 04:44:52;;;;;;;1999.90;999.90;;;15.20;99.90;;;;;;5039828;28;20036;-67
2023/09/13 04:47:18;;;;;;;1999.90;999.90;;;15.10;99.90;;;;;;5045776;28;22895;-67
2023/09/13 04:49:44;;;;;;;1999.90;999.90;;;15.00;99.90;;;;;;5051923;28;20049;-67
2023/09/13 04:52:10;;;;;;;1999.90;999.90;;;14.90;99.90;;;;;;5055806;28;20067;-67
2023/09/13 04:54:36;;;;;;;1999.90;999.90;;;14.90;99.90;;;;;;5048776;28;20588;-67
2023/09/13 04:57:03;;;;;;;1999.90;999.90;;;14.80;99.90;;;;;;5046106;28;20124;-67
2023/09/13 04:59:42;;;;;;;1999.90;999.90;;;14.70;99.90;;;;;;5045718;28;20036;-67
2023/09/13 05:02:07;;;;;;;1999.90;999.90;;;14.70;99.90;;;;;;5064140;28;20814;-67
2023/09/13 05:04:33;;;;;;;1999.90;999.90;;;14.60;99.90;;;;;;5054905;28;20120;-67
2023/09/13 05:06:58;;;;;;;1999.90;999.90;;;14.60;99.90;;;;;;5054298;28;20048;-67
2023/09/13 05:09:24;;;;;;;1999.90;999.90;;;14.60;99.90;;;;;;5033409;28;20177;-67
2023/09/13 05:11:49;;;;;;;1999.90;999.90;;;14.60;99.90;;;;;;5050242;28;20467;-67
2023/09/13 05:14:15;;;;;;;1999.90;999.90;;;14.60;99.90;;;;;;5045964;28;20119;-67
2023/09/13 05:16:41;;;;;;;1999.90;999.90;;;14.60;99.90;;;;;;5049499;28;20049;-67
2023/09/13 05:19:06;;;;;;;1999.90;999.90;;;14.60;99.90;;;;;;5049411;28;20029;-67
2023/09/13 05:21:33;;;;;;;1999.90;999.90;;;14.60;99.90;;;;;;5050435;28;20076;-67
2023/09/13 05:23:59;;;;;;;1999.90;999.90;;;14.60;99.90;;;;;;5049278;28;20037;-67
2023/09/13 05:26:25;;;;;;;1999.90;999.90;;;14.60;99.90;;;;;;5048994;28;20036;-67
2023/09/13 05:28:50;;;;;;;1999.90;999.90;;;14.60;99.90;;;;;;5050917;28;20040;-67
2023/09/13 05:31:16;;;;;;;1999.90;999.90;;;14.60;99.90;;;;;;5054060;28;20452;-67
2023/09/13 05:33:42;;;;;;;1999.90;999.90;;;14.60;99.90;;;;;;5040268;28;20488;-67
2023/09/13 05:36:08;;;;;;;1999.90;999.90;;;14.50;99.90;;;;;;5043589;28;20068;-67
2023/09/13 05:38:34;;;;;;;1999.90;999.90;;;14.50;99.90;;;;;;5032531;28;20045;-67
2023/09/13 05:41:07;;;;;;;1999.90;999.90;;;14.40;99.90;;;;;;5046118;28;20036;-67
2023/09/13 05:43:36;;;;;;;1999.90;999.90;;;14.40;99.90;;;;;;5047745;28;20460;-67
2023/09/13 05:46:02;;;;;;;1999.90;999.90;;;14.40;99.90;;;;;;5045383;28;20052;-68
2023/09/13 05:48:28;;;;;;;1999.90;999.90;;;14.40;99.90;;;;;;5068102;28;20080;-67
2023/09/13 05:50:54;;;;;;;1999.90;999.90;;;14.40;99.90;;;;;;5047477;28;20072;-67
2023/09/13 05:53:19;;;;;;;1999.90;999.90;;;14.40;99.90;;;;;;5067317;28;20052;-67
2023/09/13 05:55:49;;;;;;;1999.90;999.90;;;14.40;99.90;;;;;;5031604;28;20123;-68
2023/09/13 05:58:15;;;;;;;1999.90;999.90;;;14.30;99.90;;;;;;5048112;28;20135;-67
2023/09/13 06:00:42;;;;;;;1999.90;999.90;;;14.30;99.90;;;;;;5047949;28;20490;-69
2023/09/13 06:03:08;;;;;;;1999.90;999.90;;;14.40;99.90;;;;;;5044448;28;20083;-67
2023/09/13 06:05:34;;;;;;;1999.90;999.90;;;14.30;99.90;;;;;;5043759;28;20057;-67
2023/09/13 06:08:00;;;;;;;1999.90;999.90;;;14.40;99.90;;;;;;5033313;28;20124;-68
2023/09/13 06:10:26;;;;;;;1999.90;999.90;;;14.40;99.90;;;;;;5028713;28;20480;-67
2023/09/13 06:12:52;;;;;;;1999.90;999.90;;;14.40;99.90;;;;;;5048587;28;20417;-67
2023/09/13 06:15:18;;;;;;;1999.90;999.90;;;14.40;99.90;;;;;;5048240;28;20416;-67
2023/09/13 06:17:44;;;;;;;1999.90;999.90;;;14.30;99.90;;;;;;5047735;28;20538;-67
2023/09/13 06:20:10;;;;;;;1999.90;999.90;;;14.30;99.90;;;;;;5058899;28;20056;-67
2023/09/13 06:22:36;;;;;;;1999.90;999.90;;;14.30;99.90;;;;;;5047127;28;20386;-67
2023/09/13 06:25:02;;;;;;;1999.90;999.90;;;14.30;99.90;;;;;;5049284;28;20045;-68
2023/09/13 06:27:28;;;;;;;1999.90;999.90;;;14.30;99.90;;;;;;5035960;28;20042;-67
2023/09/13 06:29:53;;;;;;;1999.90;999.90;;;14.30;99.90;;;;;;5046512;28;20086;-67
2023/09/13 06:32:19;;;;;;;1999.90;999.90;;;14.30;99.90;;;;;;5040770;28;20032;-67
2023/09/13 06:34:44;;;;;;;1999.90;999.90;;;14.30;99.90;;;;;;5038490;28;20044;-67
2023/09/13 06:37:10;;;;;;;1999.90;999.90;;;14.20;99.90;;;;;;5048543;28;20461;-67
2023/09/13 06:39:35;;;;;;;1999.90;999.90;;;14.20;99.90;;;;;;5061070;28;20474;-67
2023/09/13 06:42:02;;;;;;;1999.90;999.90;;;14.20;99.90;;;;;;5031897;28;20077;-67
2023/09/13 06:44:27;;;;;;;1999.90;999.90;;;14.20;99.90;;;;;;5054126;28;20094;-67
2023/09/13 06:46:53;;;;;;;1999.90;999.90;;;14.30;99.90;;;;;;5050699;28;20037;-67
2023/09/13 06:49:19;;;;;;;1999.90;999.90;;;14.30;99.90;;;;;;5048452;28;20115;-67
2023/09/13 06:51:44;;;;;;;1999.90;999.90;;;14.40;99.90;;;;;;5061176;28;20160;-67
2023/09/13 06:54:11;;;;;;;1999.90;999.90;;;14.40;99.90;;;;;;5053703;28;20815;-67
2023/09/13 06:56:36;;;;;;;1999.90;999.90;;;14.50;99.90;;;;;;5053151;28;20076;-67
2023/09/13 06:59:03;;;;;;;1999.90;999.90;;;14.60;99.90;;;;;;5059891;28;20049;-67
2023/09/13 07:01:28;;;;;;;1999.90;999.90;;;14.60;99.90;;;;;;5051390;28;20045;-67
2023/09/13 07:03:55;;;;;;;1999.90;999.90;;;14.60;99.90;;;;;;5049190;28;20048;-67
2023/09/13 07:06:21;;;;;;;1999.90;999.90;;;14.70;99.90;;;;;;5033850;28;20095;-67
2023/09/13 07:08:47;;;;;;;1999.90;999.90;;;14.70;99.90;;;;;;5052395;28;20068;-67
2023/09/13 07:11:12;;;;;;;1999.90;999.90;;;14.70;99.90;;;;;;5054033;28;20045;-66
2023/09/13 07:13:38;;;;;;;1999.90;999.90;;;14.80;99.90;;;;;;5044956;28;20053;-67
2023/09/13 07:16:03;;;;;;;1999.90;999.90;;;14.80;99.90;;;;;;5039951;28;20808;-67
2023/09/13 07:18:29;;;;;;;1999.90;999.90;;;14.80;99.90;;;;;;5049867;28;20497;-67
2023/09/13 07:20:55;;;;;;;1999.90;999.90;;;14.80;99.90;;;;;;5053370;28;20043;-68
2023/09/13 07:23:20;;;;;;;1999.90;999.90;;;14.90;99.90;;;;;;5053435;28;20045;-68
2023/09/13 07:25:49;;;;;;;1999.90;999.90;;;14.80;99.90;;;;;;5040349;28;20511;-67
2023/09/13 07:28:15;;;;;;;1999.90;999.90;;;14.80;99.90;;;;;;5055372;28;20040;-68
2023/09/13 07:30:41;;;;;;;1999.90;999.90;;;14.90;99.90;;;;;;5066517;28;20049;-67
2023/09/13 07:33:06;;;;;;;1999.90;999.90;;;14.90;99.90;;;;;;5048429;28;20477;-67
2023/09/13 07:35:33;;;;;;;1999.90;999.90;;;14.90;99.90;;;;;;5036966;28;20049;-67
2023/09/13 07:37:58;;;;;;;1999.90;999.90;;;14.90;99.90;;;;;;5036868;28;20436;-67
2023/09/13 07:40:24;;;;;;;1999.90;999.90;;;14.80;99.90;;;;;;5058038;28;20132;-67
2023/09/13 07:42:50;;;;;;;1999.90;999.90;;;14.80;99.90;;;;;;5043375;28;20044;-67
2023/09/13 07:45:16;;;;;;;1999.90;999.90;;;14.90;99.90;;;;;;5050283;28;20068;-67
2023/09/13 07:47:41;;;;;;;1999.90;999.90;;;14.80;99.90;;;;;;5033825;28;20572;-67
2023/09/13 07:50:30;;;;;;;1999.90;999.90;;;14.90;99.90;;;;;;5048714;28;20040;-66
2023/09/13 07:52:56;;;;;;;1999.90;999.90;;;14.90;99.90;;;;;;5049336;28;20052;-66
2023/09/13 07:55:22;;;;;;;1999.90;999.90;;;14.90;99.90;;;;;;5045370;28;20040;-66
2023/09/13 07:57:48;;;;;;;1999.90;999.90;;;14.90;99.90;;;;;;5052816;28;20045;-66
2023/09/13 08:00:13;;;;;;;1999.90;999.90;;;14.90;99.90;;;;;;5046017;28;20398;-66
2023/09/13 08:02:41;;;;;;;1999.90;999.90;;;14.90;99.90;;;;;;5065969;28;20037;-66
2023/09/13 08:05:07;;;;;;;1999.90;999.90;;;14.90;99.90;;;;;;5051344;28;20086;-65
2023/09/13 08:07:33;;;;;;;1999.90;999.90;;;15.00;99.90;;;;;;5054712;28;20053;-66
2023/09/13 08:10:01;;;;;;;1999.90;999.90;;;15.00;99.90;;;;;;5053716;28;20121;-66
2023/09/13 08:12:26;;;;;;;1999.90;999.90;;;15.10;99.90;;;;;;5058747;28;20448;-66
2023/09/13 08:14:52;;;;;;;1999.90;999.90;;;15.20;99.90;;;;;;5048802;28;20045;-66
2023/09/13 08:17:18;;;;;;;1999.90;999.90;;;15.30;99.90;;;;;;5046362;28;20148;-66
2023/09/13 08:19:43;;;;;;;1999.90;999.90;;;15.40;99.90;;;;;;5037684;28;20045;-66
2023/09/13 08:22:09;;;;;;;1999.90;999.90;;;15.50;99.90;;;;;;5051622;28;20033;-67
2023/09/13 08:24:35;;;;;;;1999.90;999.90;;;15.60;99.90;;;;;;5049583;28;20474;-66
2023/09/13 08:27:00;;;;;;;1999.90;999.90;;;15.70;99.90;;;;;;5056879;28;20115;-66
2023/09/13 08:29:26;;;;;;;1999.90;999.90;;;15.90;99.90;;;;;;5030536;28;20504;-66
2023/09/13 08:31:51;;;;;;;1999.90;999.90;;;16.00;99.90;;;;;;5052975;28;20100;-66
2023/09/13 08:34:17;;;;;;;1999.90;999.90;;;16.10;99.90;;;;;;5053449;28;20033;-66
2023/09/13 08:36:43;;;;;;;1999.90;999.90;;;16.20;99.90;;;;;;5045732;28;20037;-67
2023/09/13 08:39:08;;;;;;;1999.90;999.90;;;16.30;99.90;;;;;;5049157;28;20045;-67
2023/09/13 08:41:34;;;;;;;1999.90;999.90;;;16.30;99.90;;;;;;5033345;28;20401;-67
2023/09/13 08:44:03;;;;;;;1999.90;999.90;;;16.30;99.90;;;;;;5045003;28;20112;-67
2023/09/13 08:46:30;;;;;;;1999.90;999.90;;;16.30;99.90;;;;;;5044539;28;20581;-67
2023/09/13 08:48:57;;;;;;;1999.90;999.90;;;16.20;99.90;;;;;;5042084;28;20434;-67
2023/09/13 08:51:23;;;;;;;1999.90;999.90;;;16.10;99.90;;;;;;5033237;28;20044;-67
2023/09/13 08:53:51;;;;;;;1999.90;999.90;;;16.10;99.90;;;;;;5034202;28;20390;-67
2023/09/13 08:56:19;;;;;;;1999.90;999.90;;;16.40;99.90;;;;;;5056846;28;20123;-67
2023/09/13 08:58:45;;;;;;;1999.90;999.90;;;16.80;99.90;;;;;;5045319;28;20036;-67
2023/09/13 09:01:12;;;;;;;1999.90;999.90;;;17.30;99.90;;;;;;5028916;28;20045;-67
2023/09/13 09:03:39;;;;;;;1999.90;999.90;;;17.50;99.90;;;;;;5041681;28;20119;-67
2023/09/13 09:06:05;;;;;;;1999.90;999.90;;;17.40;99.90;;;;;;5054894;28;20051;-67
2023/09/13 09:08:37;;;;;;;1999.90;999.90;;;17.20;99.90;;;;;;5062773;28;20118;-67
2023/09/13 09:11:03;;;;;;;1999.90;999.90;;;17.00;99.90;;;;;;5049185;28;20037;-67
2023/09/13 09:13:31;;;;;;;1999.90;999.90;;;16.90;99.90;;;;;;5058745;28;20052;-67
2023/09/13 09:15:59;;;;;;;1999.90;999.90;;;16.80;99.90;;;;;;5042440;28;20413;-67
2023/09/13 09:18:27;;;;;;;1999.90;999.90;;;16.80;99.90;;;;;;5030702;28;20040;-68
2023/09/13 09:20:53;;;;;;;1999.90;999.90;;;16.70;99.90;;;;;;5042229;28;20055;-67
2023/09/13 09:23:22;;;;;;;1999.90;999.90;;;16.60;99.90;;;;;;5062567;28;20037;-68
2023/09/13 09:25:50;;;;;;;1999.90;999.90;;;16.40;99.90;;;;;;5037104;28;20045;-68
2023/09/13 09:28:15;;;;;;;1999.90;999.90;;;16.40;99.90;;;;;;5047781;28;20051;-67
2023/09/13 09:30:44;;;;;;;1999.90;999.90;;;16.40;99.90;;;;;;5045996;28;20037;-67
2023/09/13 09:33:10;;;;;;;1999.90;999.90;;;16.40;99.90;;;;;;5053506;28;20166;-67
2023/09/13 09:35:36;;;;;;;1999.90;999.90;;;16.40;99.90;;;;;;5043125;28;20116;-67
2023/09/13 09:38:03;;;;;;;1999.90;999.90;;;16.30;99.90;;;;;;5061616;28;20390;-67
2023/09/13 09:40:37;;;;;;;1999.90;999.90;;;16.10;99.90;;;;;;5057627;28;20052;-67
2023/09/13 09:43:02;;;;;;;1999.90;999.90;;;15.90;99.90;;;;;;5056522;28;20037;-67
2023/09/13 09:45:28;;;;;;;1999.90;999.90;;;15.70;99.90;;;;;;5057228;28;20443;-67
2023/09/13 09:47:55;;;;;;;1999.90;999.90;;;15.70;99.90;;;;;;5059632;28;20033;-67
2023/09/13 09:50:21;;;;;;;1999.90;999.90;;;15.70;99.90;;;;;;5041665;28;20049;-67
2023/09/13 09:52:51;;;;;;;1999.90;999.90;;;15.80;99.90;;;;;;5032834;28;20079;-67
2023/09/13 09:55:21;;;;;;;1999.90;999.90;;;15.90;99.90;;;;;;5062835;28;20094;-67
2023/09/13 09:57:48;;;;;;;1999.90;999.90;;;16.10;99.90;;;;;;5030266;28;20443;-67
2023/09/13 10:00:14;;;;;;;1999.90;999.90;;;16.20;99.90;;;;;;5047062;28;20508;-66
2023/09/13 10:02:40;;;;;;;1999.90;999.90;;;16.20;99.90;;;;;;5057018;28;20443;-67
2023/09/13 10:05:06;;;;;;;1999.90;999.90;;;16.30;99.90;;;;;;5041830;28;20059;-67
2023/09/13 10:07:42;;;;;;;1999.90;999.90;;;16.50;99.90;;;;;;5045210;28;20044;-67
2023/09/13 10:10:11;;;;;;;1999.90;999.90;;;16.60;99.90;;;;;;5064522;28;20037;-67
2023/09/13 10:12:44;;;;;;;1999.90;999.90;;;16.80;99.90;;;;;;5051752;28;20060;-68
2023/09/13 10:15:10;;;;;;;1999.90;999.90;;;17.00;99.90;;;;;;5064307;28;20041;-67
2023/09/13 10:17:38;;;;;;;1999.90;999.90;;;17.40;99.90;;;;;;5050108;28;20056;-67
2023/09/13 10:20:06;;;;;;;1999.90;999.90;;;17.60;99.90;;;;;;5044186;28;20135;-67
2023/09/13 10:22:35;;;;;;;1999.90;999.90;;;17.70;99.90;;;;;;5047122;28;20563;-67
2023/09/13 10:25:03;;;;;;;1999.90;999.90;;;17.80;99.90;;;;;;5046877;28;20044;-67
2023/09/13 10:27:32;;;;;;;1999.90;999.90;;;18.00;99.90;;;;;;5048429;28;20041;-67
2023/09/13 10:30:01;;;;;;;1999.90;999.90;;;18.20;99.90;;;;;;5033459;28;20048;-66
2023/09/13 10:32:37;;;;;;;1999.90;999.90;;;18.40;99.90;;;;;;5041666;28;20040;-67
2023/09/13 10:35:03;;;;;;;1999.90;999.90;;;18.70;99.90;;;;;;5048738;28;20052;-66
2023/09/13 10:37:48;;;;;;;64.28;61.08;;;18.90;99.90;;;;;;5048105;28;20044;-66
2023/09/13 10:40:23;;;;;;;79.13;75.47;;;19.20;99.90;;;;;;5039376;28;20041;-67
2023/09/13 10:42:49;;;;;;;1072.47;569.25;;;19.30;99.90;;;;;;5053676;28;20040;-67
2023/09/13 10:45:18;;;;;;;122.28;116.55;;;19.40;99.90;;;;;;5049281;28;20499;-67
2023/09/13 10:47:49;;;;;;;58.80;55.85;;;19.60;99.90;;;;;;5041925;28;20052;-66
2023/09/13 10:50:15;;;;;;;58.22;54.95;;;19.70;99.90;;;;;;5058960;28;20039;-66
2023/09/13 10:52:43;;;;;;;39.20;37.17;;;19.70;99.90;;;;;;5047262;28;20444;-67
2023/09/13 10:55:10;;;;;;;64.38;61.33;;;19.60;99.90;;;;;;5041668;28;20536;-67
2023/09/13 10:57:40;;;;;;;146.00;139.52;;;19.70;99.90;;;;;;5049759;28;20068;-66
2023/09/13 11:00:12;;;;;;;229.50;219.32;;;19.80;99.90;;;;;;5038385;28;20397;-66
2023/09/13 11:02:43;;;;;;;137.68;131.70;;;20.00;99.90;;;;;;5028203;28;21112;-66
2023/09/13 11:05:13;;;;;;;135.00;129.02;;;19.80;99.90;;;;;;5046860;28;20116;-66
2023/09/13 11:07:41;;;;;;;177.02;169.30;;;19.50;99.90;;;;;;5048787;28;20037;-66
2023/09/13 11:10:14;;;;;;;175.50;167.75;;;19.40;99.90;;;;;;5047093;28;20041;-66
2023/09/13 11:12:43;;;;;;;175.98;168.25;;;19.10;99.90;;;;;;5049425;28;20101;-66
2023/09/13 11:15:46;;;;;;;166.55;159.38;;;19.10;99.90;;;;;;5046314;28;20082;-66
2023/09/13 11:18:16;;;;;;;139.18;133.23;;;19.30;99.90;;;;;;5038893;28;20033;-66
2023/09/13 11:20:44;;;;;;;217.90;208.43;;;19.30;99.90;;;;;;5045391;28;20485;-66
2023/09/13 11:23:12;;;;;;;221.27;211.63;;;19.30;99.90;;;;;;5042183;28;20085;-66
2023/09/13 11:25:42;;;;;;;210.68;201.40;;;19.20;99.90;;;;;;5050187;28;20425;-67
2023/09/13 11:28:28;;;;;;;183.82;175.82;;;19.10;99.90;;;;;;5053211;28;20053;-66
2023/09/13 11:30:58;;;;;;;120.28;114.75;;;18.80;99.90;;;;;;5045076;28;20497;-66
2023/09/13 11:33:29;;;;;;;184.40;176.30;;;18.50;99.90;;;;;;5057852;28;20496;-67
2023/09/13 11:35:57;;;;;;;235.48;224.75;;;18.50;99.90;;;;;;5042149;28;20045;-66
2023/09/13 11:38:23;;;;;;;251.20;240.35;;;18.90;99.90;;;;;;5046122;28;20500;-66
2023/09/13 11:40:50;;;;;;;297.83;284.52;;;19.20;99.90;;;;;;5031424;28;20430;-66
2023/09/13 11:43:28;;;;;;;288.15;275.40;;;19.30;99.90;;;;;;5050289;28;20136;-66
2023/09/13 11:45:58;;;;;;;319.38;304.42;;;19.20;99.90;;;;;;5047191;28;20052;-67
2023/09/13 11:48:40;;;;;;;175.43;167.70;;;19.10;99.90;;;;;;5052523;28;20064;-67
2023/09/13 11:51:10;;;;;;;233.18;223.25;;;19.10;99.90;;;;;;5052074;28;20078;-66
2023/09/13 11:53:36;;;;;;;283.67;270.77;;;18.90;99.90;;;;;;5048933;28;20079;-66
2023/09/13 11:56:02;;;;;;;264.23;252.68;;;18.70;99.90;;;;;;5038659;28;20040;-66
2023/09/13 11:58:33;;;;;;;294.88;281.88;;;18.50;99.90;;;;;;5050047;28;20042;-67
2023/09/13 12:01:00;;;;;;;283.45;270.90;;;18.30;99.90;;;;;;5044762;28;20135;-67
2023/09/13 12:03:30;;;;;;;251.18;240.30;;;18.00;99.90;;;;;;5048532;28;20493;-67